createdAt,value
2019-04-23T00:02:26.554Z,101029.26
2019-04-23T00:04:46.882Z,101026.70
2019-04-23T00:07:39.182Z,101022.92
2019-04-23T00:09:57.161Z,101023.34
2019-04-23T00:12:29.985Z,101024.44
2019-04-23T00:15:04.394Z,101018.09
2019-04-23T00:17:29.937Z,101018.09
2019-04-23T00:19:55.734Z,101016.56
2019-04-23T00:22:29.161Z,101011.87
2019-04-23T00:25:36.427Z,101003.73
2019-04-23T00:27:40.536Z,101021.70
2019-04-23T00:30:20.280Z,101006.66
2019-04-23T00:32:34.978Z,101002.09
2019-04-23T00:40:19.043Z,101002.02
2019-04-23T00:42:36.606Z,100995.10
2019-04-23T00:45:00.300Z,100988.70
2019-04-23T00:50:20.251Z,100980.88
2019-04-23T00:52:32.160Z,100980.97
2019-04-23T00:57:35.937Z,100986.91
2019-04-23T01:00:13.985Z,100986.91
2019-04-23T01:02:36.988Z,100981.63
2019-04-23T01:05:11.418Z,100978.14
2019-04-23T01:07:38.342Z,100978.14
2019-04-23T01:15:11.987Z,100972.73
2019-04-23T01:20:15.009Z,100976.21
2019-04-23T01:22:33.509Z,100972.42
2019-04-23T01:25:13.416Z,100975.19
2019-04-23T01:28:07.590Z,100963.53
2019-04-23T01:30:32.870Z,100963.53
2019-04-23T01:33:14.203Z,100970.78
2019-04-23T01:35:36.400Z,100962.37
2019-04-23T01:38:09.650Z,100962.37
2019-04-23T01:40:37.491Z,100954.27
2019-04-23T01:43:07.919Z,100954.27
2019-04-23T01:45:30.726Z,100949.08
2019-04-23T01:48:04.694Z,100939.45
2019-04-23T01:50:47.099Z,100939.45
2019-04-23T01:53:16.699Z,100944.22
2019-04-23T01:55:42.163Z,100942.26
2019-04-23T02:00:40.755Z,100931.13
2019-04-23T02:03:26.702Z,100931.84
2019-04-23T02:05:42.657Z,100920.38
2019-04-23T02:13:16.147Z,100926.14
2019-04-23T02:15:44.059Z,100918.90
2019-04-23T02:18:17.968Z,100912.53
2019-04-23T02:20:48.006Z,100912.53
2019-04-23T02:23:28.099Z,100909.81
2019-04-23T02:28:28.644Z,100915.48
2019-04-23T02:36:05.449Z,100917.15
2019-04-23T02:38:40.622Z,100910.70
2019-04-23T02:43:21.981Z,100914.55
2019-04-23T02:48:36.212Z,100914.38
2019-04-23T02:50:55.025Z,100913.92
2019-04-23T03:03:44.910Z,100913.95
2019-04-23T03:06:05.916Z,100902.54
2019-04-23T03:08:36.332Z,100900.63
2019-04-23T03:11:09.971Z,100898.19
2019-04-23T03:16:34.780Z,100893.50
2019-04-23T03:24:16.297Z,100881.64
2019-04-23T03:35:16.085Z,100881.48
2019-04-23T03:36:42.782Z,100873.75
2019-04-23T03:38:56.053Z,100876.27
2019-04-23T03:43:54.402Z,100879.58
2019-04-23T03:48:57.067Z,100869.47
2019-04-23T03:51:34.143Z,100875.67
2019-04-23T03:54:24.433Z,100874.52
2019-04-23T03:56:48.599Z,100874.67
2019-04-23T03:59:32.738Z,100880.75
2019-04-23T04:01:34.695Z,100872.45
2019-04-23T04:09:24.168Z,100872.42
2019-04-23T04:11:29.261Z,100876.34
2019-04-23T04:16:42.770Z,100870.81
2019-04-23T04:19:16.813Z,100866.85
2019-04-23T04:26:43.854Z,100861.05
2019-04-23T04:29:11.766Z,100856.45
2019-04-23T04:31:54.750Z,100860.58
2019-04-23T04:34:21.638Z,100859.64
2019-04-23T04:36:45.863Z,100858.19
2019-04-23T04:39:00.685Z,100861.38
2019-04-23T04:41:40.540Z,100862.41
2019-04-23T04:49:15.100Z,100860.44
2019-04-23T04:51:51.877Z,100856.08
2019-04-23T04:59:11.965Z,100852.41
2019-04-23T05:01:37.353Z,100844.83
2019-04-23T05:06:59.395Z,100839.98
2019-04-23T05:09:31.841Z,100841.64
2019-04-23T05:14:08.230Z,100840.27
2019-04-23T05:16:44.463Z,100842.88
2019-04-23T05:19:22.184Z,100837.62
2019-04-23T05:21:46.772Z,100835.78
2019-04-23T05:24:08.953Z,100833.27
2019-04-23T05:26:33.129Z,100826.35
2019-04-23T05:31:32.863Z,100833.54
2019-04-23T05:34:11.095Z,100816.34
2019-04-23T05:36:45.689Z,100816.34
2019-04-23T05:39:17.256Z,100818.37
2019-04-23T05:41:41.235Z,100819.01
2019-04-23T05:44:17.146Z,100822.78
2019-04-23T05:46:37.742Z,100817.91
2019-04-23T05:49:14.308Z,100805.32
2019-04-23T05:54:12.904Z,100817.70
2019-04-23T05:56:52.044Z,100815.68
2019-04-23T05:59:14.680Z,100806.70
2019-04-23T06:09:14.110Z,100801.48
2019-04-23T06:19:18.247Z,100795.88
2019-04-23T06:21:57.782Z,100779.55
2019-04-23T06:24:23.889Z,100775.70
2019-04-23T06:26:49.195Z,100775.70
2019-04-23T06:29:20.624Z,100768.16
2019-04-23T06:34:17.126Z,100770.81
2019-04-23T06:36:44.477Z,100755.19
2019-04-23T06:39:23.348Z,100777.58
2019-04-23T06:41:50.057Z,100777.58
2019-04-23T06:49:37.251Z,100767.92
2019-04-23T06:54:35.872Z,100775.11
2019-04-23T06:57:11.872Z,100770.53
2019-04-23T06:59:30.677Z,100748.20
2019-04-23T07:04:37.457Z,100757.48
2019-04-23T07:07:29.668Z,100757.48
2019-04-23T07:09:27.461Z,100760.09
2019-04-23T07:12:07.680Z,100753.80
2019-04-23T07:14:35.884Z,100743.64
2019-04-23T07:17:02.696Z,100745.64
2019-04-23T07:19:39.291Z,100736.84
2019-04-23T07:22:14.588Z,100738.27
2019-04-23T07:24:36.598Z,100740.41
2019-04-23T07:27:03.320Z,100732.41
2019-04-23T07:29:31.406Z,100745.83
2019-04-23T07:32:05.917Z,100735.15
2019-04-23T07:34:37.514Z,100724.91
2019-04-23T07:37:05.201Z,100736.17
2019-04-23T07:40:14.155Z,100728.82
2019-04-23T07:42:29.940Z,100728.23
2019-04-23T07:45:18.921Z,100733.17
2019-04-23T07:48:15.208Z,100727.99
2019-04-23T07:50:49.064Z,100728.91
2019-04-23T07:53:16.335Z,100727.41
2019-04-23T07:58:14.357Z,100717.61
2019-04-23T08:03:17.396Z,100721.53
2019-04-23T08:08:21.453Z,100709.72
2019-04-23T08:11:14.325Z,100709.72
2019-04-23T08:13:16.366Z,100700.42
2019-04-23T08:15:42.977Z,100695.87
2019-04-23T08:18:13.567Z,100699.62
2019-04-23T08:20:49.048Z,100684.20
2019-04-23T08:23:16.481Z,100684.20
2019-04-23T08:26:00.551Z,100688.78
2019-04-23T08:28:23.033Z,100672.25
2019-04-23T08:30:46.559Z,100678.34
2019-04-23T08:33:21.284Z,100671.31
2019-04-23T08:35:54.251Z,100665.48
2019-04-23T08:40:55.634Z,100666.25
2019-04-23T08:46:18.693Z,100658.27
2019-04-23T08:48:41.632Z,100656.16
2019-04-23T08:51:26.212Z,100649.48
2019-04-23T08:53:57.099Z,100658.48
2019-04-23T08:56:12.350Z,100661.96
2019-04-23T08:58:43.616Z,100642.12
2019-04-23T09:01:12.265Z,100646.73
2019-04-23T09:03:39.139Z,100631.12
2019-04-23T09:06:15.771Z,100629.00
2019-04-23T09:08:44.250Z,100627.36
2019-04-23T09:11:30.848Z,100625.02
2019-04-23T09:13:53.558Z,100622.80
2019-04-23T09:16:22.123Z,100627.50
2019-04-23T09:19:02.788Z,100626.47
2019-04-23T09:21:15.587Z,100613.64
2019-04-23T09:23:46.639Z,100619.31
2019-04-23T09:26:08.985Z,100615.43
2019-04-23T09:28:51.661Z,100605.88
2019-04-23T09:32:02.024Z,100603.92
2019-04-23T09:34:05.589Z,100592.91
2019-04-23T09:36:58.172Z,100597.32
2019-04-23T09:39:34.889Z,100594.85
2019-04-23T09:42:08.743Z,100582.70
2019-04-23T09:47:38.552Z,100566.50
2019-04-23T09:50:15.835Z,100568.25
2019-04-23T09:52:44.668Z,100570.45
2019-04-23T09:55:15.531Z,100570.99
2019-04-23T09:57:43.375Z,100561.38
2019-04-23T10:00:16.880Z,100560.31
2019-04-23T10:02:30.834Z,100553.39
2019-04-23T10:04:55.513Z,100541.42
2019-04-23T10:07:27.115Z,100535.73
2019-04-23T10:09:44.760Z,100540.70
2019-04-23T10:12:14.656Z,100539.89
2019-04-23T10:14:54.861Z,100537.63
2019-04-23T10:17:13.955Z,100538.02
2019-04-23T10:19:42.759Z,100531.92
2019-04-23T10:22:11.487Z,100510.52
2019-04-23T10:24:41.097Z,100523.30
2019-04-23T10:27:10.059Z,100505.84
2019-04-23T10:29:41.628Z,100510.65
2019-04-23T10:32:11.678Z,100513.72
2019-04-23T10:34:55.259Z,100505.42
2019-04-23T10:37:11.392Z,100502.39
2019-04-23T10:39:43.696Z,100491.00
2019-04-23T10:42:11.988Z,100491.86
2019-04-23T10:44:43.868Z,100484.91
2019-04-23T10:48:10.154Z,100472.20
2019-04-23T10:53:20.184Z,100469.97
2019-04-23T10:55:49.968Z,100466.95
2019-04-23T10:58:08.455Z,100467.41
2019-04-23T11:00:37.622Z,100471.74
2019-04-23T11:03:21.728Z,100477.45
2019-04-23T11:08:11.202Z,100470.05
2019-04-23T11:10:42.920Z,100469.14
2019-04-23T11:13:17.518Z,100463.05
2019-04-23T11:18:04.086Z,100455.63
2019-04-23T11:20:44.611Z,100460.84
2019-04-23T11:23:08.107Z,100460.83
2019-04-23T11:25:55.700Z,100452.50
2019-04-23T11:28:22.718Z,100460.41
2019-04-23T11:30:41.705Z,100452.52
2019-04-23T11:33:18.515Z,100442.84
2019-04-23T11:36:01.753Z,100444.22
2019-04-23T11:38:43.790Z,100435.42
2019-04-23T11:40:41.825Z,100436.24
2019-04-23T11:43:20.334Z,100444.98
2019-04-23T11:53:29.731Z,100420.74
2019-04-23T11:56:13.976Z,100408.72
2019-04-23T12:01:10.864Z,100428.55
2019-04-23T12:03:37.317Z,100415.53
2019-04-23T12:06:12.148Z,100411.43
2019-04-23T12:08:57.351Z,100398.14
2019-04-23T12:14:24.264Z,100417.93
2019-04-23T12:17:15.256Z,100411.80
2019-04-23T12:22:15.071Z,100422.95
2019-04-23T12:34:59.394Z,100425.36
2019-04-23T12:37:34.638Z,100411.19
2019-04-23T12:40:12.862Z,100413.27
2019-04-23T12:47:43.844Z,100412.16
2019-04-23T12:50:33.387Z,100415.48
2019-04-23T12:52:40.598Z,100403.59
2019-04-23T12:57:37.291Z,100408.20
2019-04-23T13:00:12.209Z,100408.68
2019-04-23T13:05:23.151Z,100406.91
2019-04-23T13:07:38.574Z,100399.05
2019-04-23T13:10:11.899Z,100404.34
2019-04-23T13:12:46.667Z,100395.45
2019-04-23T13:15:10.794Z,100386.64
2019-04-23T13:20:23.641Z,100387.89
2019-04-23T13:25:18.201Z,100381.87
2019-04-23T13:27:55.581Z,100385.52
2019-04-23T13:30:24.994Z,100374.38
2019-04-23T13:32:52.193Z,100367.01
2019-04-23T13:35:28.200Z,100368.00
2019-04-23T13:37:56.898Z,100359.50
2019-04-23T13:40:24.381Z,100353.32
2019-04-23T13:42:55.134Z,100360.00
2019-04-23T13:45:45.983Z,100354.19
2019-04-23T13:47:53.224Z,100370.22
2019-04-23T13:50:30.931Z,100350.66
2019-04-23T14:00:31.621Z,100348.20
2019-04-23T14:02:52.681Z,100349.87
2019-04-23T14:05:38.050Z,100356.64
2019-04-23T14:08:15.512Z,100354.30
2019-04-23T14:15:54.103Z,100344.84
2019-04-23T14:21:05.958Z,100344.73
2019-04-23T14:25:59.858Z,100358.31
2019-04-23T14:28:21.942Z,100356.58
2019-04-23T14:30:53.874Z,100354.84
2019-04-23T14:35:49.699Z,100350.58
2019-04-23T14:38:27.618Z,100364.22
2019-04-23T14:43:40.292Z,100354.97
2019-04-23T14:46:27.128Z,100373.00
2019-04-23T14:51:02.485Z,100370.77
2019-04-23T14:53:24.697Z,100370.39
2019-04-23T14:58:36.847Z,100361.28
2019-04-23T15:01:16.134Z,100364.86
2019-04-23T15:03:35.415Z,100369.25
2019-04-23T15:06:12.692Z,100363.14
2019-04-23T15:08:39.783Z,100363.17
2019-04-23T15:11:13.456Z,100356.13
2019-04-23T15:13:40.771Z,100357.94
2019-04-23T15:16:11.464Z,100350.03
2019-04-23T15:18:50.769Z,100350.48
2019-04-23T15:21:42.407Z,100341.27
2019-04-23T15:23:54.002Z,100347.42
2019-04-23T15:27:02.280Z,100343.02
2019-04-23T15:28:18.649Z,100344.78
2019-04-23T15:31:20.155Z,100344.79
2019-04-23T15:33:56.554Z,100340.42
2019-04-23T15:46:47.450Z,100336.95
2019-04-23T15:49:18.210Z,100331.69
2019-04-23T16:01:34.607Z,100322.92
2019-04-23T16:03:41.911Z,100333.88
2019-04-23T16:06:12.735Z,100326.85
2019-04-23T16:09:06.130Z,100321.17
2019-04-23T16:19:20.677Z,100313.27
2019-04-23T16:22:04.664Z,100309.80
2019-04-23T16:24:19.384Z,100314.19
2019-04-23T16:31:46.872Z,100313.72
2019-04-23T16:34:27.277Z,100304.55
2019-04-23T16:36:55.511Z,100308.04
2019-04-23T16:39:22.261Z,100311.54
2019-04-23T16:41:54.795Z,100302.34
2019-04-23T16:44:36.996Z,100300.14
2019-04-23T16:46:56.159Z,100295.80
2019-04-23T16:49:22.043Z,100296.20
2019-04-23T16:51:47.538Z,100291.39
2019-04-23T16:54:36.832Z,100296.22
2019-04-23T16:57:17.902Z,100296.64
2019-04-23T16:59:24.211Z,100288.26
2019-04-23T17:02:03.556Z,100286.93
2019-04-23T17:04:24.842Z,100293.02
2019-04-23T17:06:57.735Z,100282.58
2019-04-23T17:09:26.338Z,100285.10
2019-04-23T17:12:05.987Z,100283.84
2019-04-23T17:16:51.603Z,100283.36
2019-04-23T17:21:59.966Z,100288.55
2019-04-23T17:27:07.140Z,100279.89
2019-04-23T17:29:28.680Z,100285.51
2019-04-23T17:32:07.113Z,100267.56
2019-04-23T17:34:47.535Z,100271.09
2019-04-23T17:37:19.928Z,100274.58
2019-04-23T17:40:08.683Z,100276.28
2019-04-23T17:42:39.809Z,100264.09
2019-04-23T17:52:51.095Z,100263.72
2019-04-23T17:55:15.027Z,100255.38
2019-04-23T17:57:44.401Z,100258.42
2019-04-23T18:02:55.623Z,100252.77
2019-04-23T18:05:27.420Z,100251.91
2019-04-23T18:08:01.736Z,100246.27
2019-04-23T18:12:53.799Z,100247.58
2019-04-23T18:15:24.505Z,100245.38
2019-04-23T18:17:54.763Z,100246.69
2019-04-23T18:23:04.201Z,100245.78
2019-04-23T18:25:26.718Z,100237.52
2019-04-23T18:30:28.809Z,100242.32
2019-04-23T18:33:31.903Z,100245.80
2019-04-23T18:35:27.955Z,100239.27
2019-04-23T18:37:56.405Z,100240.59
2019-04-23T18:40:29.892Z,100246.70
2019-04-23T18:43:04.501Z,100241.05
2019-04-23T18:45:38.689Z,100248.02
2019-04-23T18:48:34.352Z,100243.66
2019-04-23T18:50:58.507Z,100244.97
2019-04-23T18:53:26.775Z,100246.73
2019-04-23T18:58:21.173Z,100251.12
2019-04-23T19:01:01.974Z,100255.52
2019-04-23T19:03:30.285Z,100252.47
2019-04-23T19:06:10.668Z,100254.67
2019-04-23T19:08:53.715Z,100258.59
2019-04-23T19:11:23.091Z,100255.54
2019-04-23T19:13:50.868Z,100259.47
2019-04-23T19:16:25.332Z,100258.16
2019-04-23T19:18:56.744Z,100256.87
2019-04-23T19:21:49.005Z,100266.48
2019-04-23T19:23:51.038Z,100261.66
2019-04-23T19:26:47.268Z,100265.16
2019-04-23T19:29:14.031Z,100263.41
2019-04-23T19:31:34.475Z,100259.06
2019-04-23T19:34:34.040Z,100266.05
2019-04-23T19:36:52.540Z,100262.53
2019-04-23T19:39:11.533Z,100263.42
2019-04-23T19:41:49.825Z,100269.10
2019-04-23T19:44:08.501Z,100266.94
2019-04-23T19:49:13.771Z,100264.74
2019-04-23T19:51:44.612Z,100268.25
2019-04-23T19:54:17.129Z,100268.66
2019-04-23T19:59:18.467Z,100266.91
2019-04-23T20:01:44.694Z,100258.59
2019-04-23T20:04:04.148Z,100259.91
2019-04-23T20:09:28.487Z,100269.10
2019-04-23T20:11:50.582Z,100264.73
2019-04-23T20:14:09.657Z,100266.91
2019-04-23T20:19:25.454Z,100262.98
2019-04-23T20:21:51.060Z,100269.53
2019-04-23T20:27:01.194Z,100279.14
2019-04-23T20:34:51.818Z,100272.16
2019-04-23T20:36:52.629Z,100269.50
2019-04-23T20:39:34.923Z,100269.91
2019-04-23T20:42:11.942Z,100267.30
2019-04-23T20:44:39.418Z,100277.36
2019-04-23T20:47:08.559Z,100281.71
2019-04-23T20:54:42.386Z,100272.07
2019-04-23T20:57:24.375Z,100277.34
2019-04-23T20:59:57.202Z,100277.29
2019-04-23T21:02:43.172Z,100273.83
2019-04-23T21:05:11.861Z,100284.31
2019-04-23T21:07:35.956Z,100283.39
2019-04-23T21:10:08.978Z,100279.46
2019-04-23T21:12:42.803Z,100281.20
2019-04-23T21:15:05.306Z,100281.21
2019-04-23T21:17:40.651Z,100274.64
2019-04-23T21:22:31.532Z,100277.64
2019-04-23T21:24:54.646Z,100269.80
2019-04-23T21:27:43.080Z,100281.59
2019-04-23T21:32:44.192Z,100274.13
2019-04-23T21:37:47.965Z,100259.28
2019-04-23T21:42:59.009Z,100281.96
2019-04-23T21:45:25.850Z,100283.30
2019-04-23T21:48:02.384Z,100284.12
2019-04-23T21:50:28.430Z,100288.49
2019-04-23T21:52:54.135Z,100284.98
2019-04-23T21:55:36.275Z,100292.77
2019-04-23T21:57:59.645Z,100294.58
2019-04-23T22:00:24.289Z,100281.76
2019-04-23T22:03:01.219Z,100285.36
2019-04-23T22:05:42.500Z,100292.78
2019-04-23T22:07:58.172Z,100288.42
2019-04-23T22:10:25.693Z,100287.09
2019-04-23T22:13:09.667Z,100288.36
2019-04-23T22:15:34.968Z,100288.33
2019-04-23T22:17:49.948Z,100287.83
2019-04-23T22:20:33.184Z,100285.70
2019-04-23T22:23:10.629Z,100290.92
2019-04-23T22:25:32.158Z,100286.52
2019-04-23T22:27:58.167Z,100283.05
2019-04-23T22:30:31.584Z,100289.11
2019-04-23T22:33:07.199Z,100283.84
2019-04-23T22:35:30.112Z,100288.19
2019-04-23T22:38:07.009Z,100292.59
2019-04-23T22:40:25.369Z,100294.23
2019-04-23T22:45:26.460Z,100294.33
2019-04-23T22:50:39.752Z,100296.49
2019-04-23T22:53:02.664Z,100281.23
2019-04-23T22:55:38.899Z,100295.63
2019-04-23T22:58:05.097Z,100291.75
2019-04-23T23:00:27.355Z,100292.16
2019-04-23T23:03:27.160Z,100289.98
2019-04-23T23:06:09.200Z,100288.17
2019-04-23T23:10:53.987Z,100290.70
2019-04-23T23:13:20.748Z,100288.13
2019-04-23T23:15:59.599Z,100285.94
2019-04-23T23:18:17.872Z,100290.77
2019-04-23T23:20:52.397Z,100284.09
2019-04-23T23:23:17.725Z,100284.47
2019-04-23T23:28:26.896Z,100287.97
2019-04-23T23:35:54.156Z,100287.02
2019-04-23T23:38:27.112Z,100286.67
2019-04-23T23:40:58.728Z,100287.92
2019-04-23T23:46:03.303Z,100284.40
2019-04-23T23:48:20.132Z,100283.08
2019-04-23T23:51:00.712Z,100275.99
2019-04-23T23:53:31.421Z,100279.16
2019-04-23T23:58:28.900Z,100279.98
